Volcan De Tijarafe — ECNO — position and weather

sailwx.info

Track history (hours):
 
Tides and Currents Weather Stations Pressure Air Temp Water Temp Dewpoint Dewpoint Depression Visibility Wind Speed Wind Dir Waves Ship Positions

Volcan De Tijarafe

Last reported at 2018-Apr-21 04:00 UTC. Time now 2018-Apr-21 04:08 UTC.
Position N 28°10' W 015°24'.

Length 154 m; draft 5.2 m.

Type: Passenger vessel. MMSI: 224692000.

Date/timePositionNaut miles runAvg speedWind from/ knotsBaromVisibWave heightAir tempDewpointWater temp
2018-Apr-21 04:00N 28°10' W 015°24'0 0.0
2018-Apr-21 03:30N 28°10' W 015°24'0 0.0
2018-Apr-21 03:00N 28°10' W 015°24'0 0.0
2018-Apr-21 02:31N 28°10' W 015°24'0 0.0
2018-Apr-21 02:00N 28°10' W 015°24'0 0.0
2018-Apr-21 01:30N 28°10' W 015°24'0 0.0
2018-Apr-21 00:59N 28°10' W 015°24'0 0.0
2018-Apr-21 00:30N 28°10' W 015°24'0 0.0
2018-Apr-21 00:00N 28°10' W 015°24'0 0.0
2018-Apr-20 23:30N 28°10' W 015°24'0 0.0
2018-Apr-20 23:00N 28°10' W 015°24'0 0.0
2018-Apr-20 22:30N 28°10' W 015°24'0 0.4
2018-Apr-20 22:00N 28°09' W 015°24'713.2
2018-Apr-20 21:30N 28°13' W 015°30'1020.7
2018-Apr-20 21:00N 28°17' W 015°41'1020.7
2018-Apr-20 20:30N 28°21' W 015°52'1020.9
2018-Apr-20 20:00N 28°25' W 016°03'1020.9
2018-Apr-20 19:30N 28°29' W 016°14'1 2.0
2018-Apr-20 19:00N 28°28' W 016°15'0 0.0
2018-Apr-20 18:30N 28°28' W 016°15'3 5.4
2018-Apr-20 18:00N 28°28' W 016°12'1020.6
2018-Apr-20 17:30N 28°25' W 016°01'1020.2
2018-Apr-20 17:00N 28°21' W 015°50'1020.3
2018-Apr-20 16:30N 28°17' W 015°39'1020.2
2018-Apr-20 16:00N 28°14' W 015°28'611.1
2018-Apr-20 15:30N 28°10' W 015°24'0 0.0
2018-Apr-20 15:00N 28°10' W 015°24'0 0.0
2018-Apr-20 14:30N 28°10' W 015°24'0 0.0
2018-Apr-20 14:00N 28°10' W 015°24'0 0.0
2018-Apr-20 13:29N 28°10' W 015°24'511.7
2018-Apr-20 13:00N 28°11' W 015°18'1121.8
2018-Apr-20 12:30N 28°16' W 015°07'1121.8
2018-Apr-20 12:00N 28°21' W 014°56'1121.7
2018-Apr-20 11:30N 28°26' W 014°45'4321.2
2018-Apr-20 09:28N 28°46' W 014°01'1020.9
2018-Apr-20 08:58N 28°49' W 013°50'1021.9
2018-Apr-20 08:30N 28°53' W 013°39'916.9
2018-Apr-20 07:59N 28°58' W 013°32'0 0.0
2018-Apr-20 07:30N 28°58' W 013°32'0 0.0
2018-Apr-20 06:55N 28°58' W 013°32'0 0.0
2018-Apr-20 06:29N 28°58' W 013°32'0 0.0
2018-Apr-20 05:59N 28°58' W 013°32'0 0.0
2018-Apr-20 05:26N 28°58' W 013°32'3 7.7
2018-Apr-20 05:00N 28°56' W 013°34'918.0
2018-Apr-20 04:30N 28°51' W 013°43'1017.3
2018-Apr-20 03:57N 28°48' W 013°53'4418.0
2018-Apr-20 01:30N 28°30' W 014°39'917.8
2018-Apr-20 01:00N 28°25' W 014°48'918.1
2018-Apr-20 00:30N 28°21' W 014°57'917.8
2018-Apr-20 00:00N 28°17' W 015°06'917.1
2018-Apr-19 23:30N 28°13' W 015°14'917.7
2018-Apr-19 23:00N 28°09' W 015°23'1 1.7
2018-Apr-19 22:30N 28°10' W 015°24'0 0.0
2018-Apr-19 22:00N 28°10' W 015°24'0 0.0
2018-Apr-19 21:30N 28°10' W 015°24'0 0.0
2018-Apr-19 21:00N 28°10' W 015°24'0 0.0
2018-Apr-19 20:30N 28°10' W 015°24'0 0.0
2018-Apr-19 20:00N 28°10' W 015°24'0 0.0
2018-Apr-19 19:28N 28°10' W 015°24'0 0.0
2018-Apr-19 19:00N 28°10' W 015°24'0 0.0
2018-Apr-19 18:30N 28°10' W 015°24'0 0.0
2018-Apr-19 18:00N 28°10' W 015°24'611.3
2018-Apr-19 17:30N 28°08' W 015°18'1020.1
2018-Apr-19 17:00N 28°06' W 015°07'1020.5
2018-Apr-19 16:30N 28°05' W 014°55'1020.4
2018-Apr-19 16:00N 28°03' W 014°44'1020.3
2018-Apr-19 15:30N 28°02' W 014°32'910.0
2018-Apr-19 14:34N 28°03' W 014°22'0 0.0
2018-Apr-19 14:08N 28°03' W 014°22'0 0.0
2018-Apr-19 13:53N 28°03' W 014°22'0 0.0
2018-Apr-19 13:22N 28°03' W 014°22'0 0.0
2018-Apr-19 12:55N 28°03' W 014°22'0 0.0
2018-Apr-19 12:30N 28°03' W 014°22'0 0.0
2018-Apr-19 12:00N 28°03' W 014°22'0 0.0
2018-Apr-19 11:30N 28°03' W 014°22'0 0.0
2018-Apr-19 10:59N 28°03' W 014°22'0 0.0
2018-Apr-19 10:30N 28°03' W 014°22'0 0.0
2018-Apr-19 10:00N 28°03' W 014°22'510.4
2018-Apr-19 09:30N 28°02' W 014°28'1220.6
2018-Apr-19 08:56N 28°03' W 014°41'920.5
2018-Apr-19 08:30N 28°04' W 014°51'1020.6
2018-Apr-19 08:00N 28°06' W 015°02'1020.4
2018-Apr-19 07:30N 28°07' W 015°14'918.6
2018-Apr-19 07:00N 28°09' W 015°24'0 0.4
2018-Apr-19 06:30N 28°10' W 015°24'0 0.0
2018-Apr-19 06:00N 28°10' W 015°24'0 0.0
2018-Apr-19 05:30N 28°10' W 015°24'0 0.0
2018-Apr-19 05:00N 28°10' W 015°24'0 0.0
2018-Apr-19 04:30N 28°10' W 015°24'0 0.0
2018-Apr-19 03:59N 28°10' W 015°24'0 0.0
2018-Apr-19 03:30N 28°10' W 015°24'0 0.0
2018-Apr-19 03:00N 28°10' W 015°24'0 0.0
2018-Apr-19 02:28N 28°10' W 015°24'0 0.0
2018-Apr-19 02:00N 28°10' W 015°24'0 0.0
2018-Apr-19 01:30N 28°10' W 015°24'0 0.0
2018-Apr-19 01:00N 28°10' W 015°24'0 0.0
2018-Apr-19 00:30N 28°10' W 015°24'0 0.0
2018-Apr-19 00:00N 28°10' W 015°24'0 0.0
2018-Apr-18 23:30N 28°10' W 015°24'0 0.0
2018-Apr-18 23:00N 28°10' W 015°24'0 0.0
2018-Apr-18 22:29N 28°10' W 015°24'0 0.0
2018-Apr-18 22:00N 28°10' W 015°24'0 0.5
2018-Apr-18 21:30N 28°09' W 015°24'714.0
2018-Apr-18 21:01N 28°14' W 015°30'1020.7
2018-Apr-18 20:31N 28°17' W 015°41'1020.7
2018-Apr-18 20:00N 28°21' W 015°52'1020.9
2018-Apr-18 19:30N 28°25' W 016°03'1020.8
2018-Apr-18 19:01N 28°29' W 016°14'1 1.5
2018-Apr-18 18:30N 28°28' W 016°15'0 0.0
2018-Apr-18 18:00N 28°28' W 016°15'1 1.6
2018-Apr-18 17:30N 28°29' W 016°14'1019.8
2018-Apr-18 17:00N 28°25' W 016°04'1020.8
2018-Apr-18 16:30N 28°22' W 015°52'1020.9
2018-Apr-18 16:00N 28°18' W 015°41'1021.0
2018-Apr-18 15:30N 28°14' W 015°30'815.0
2018-Apr-18 15:00N 28°09' W 015°24'1 1.0
2018-Apr-18 14:27N 28°10' W 015°24'0 0.0
2018-Apr-18 14:00N 28°10' W 015°24'0 0.0
2018-Apr-18 13:30N 28°10' W 015°24'0 0.0
2018-Apr-18 13:00N 28°10' W 015°24'0 0.0
2018-Apr-18 12:30N 28°10' W 015°24'0 0.0
2018-Apr-18 12:00N 28°10' W 015°24'0 0.0
2018-Apr-18 11:30N 28°10' W 015°24'0 0.0
2018-Apr-18 11:00N 28°10' W 015°24'0 0.0
2018-Apr-18 10:30N 28°10' W 015°24'0 0.0
2018-Apr-18 10:00N 28°10' W 015°24'0 0.0
2018-Apr-18 09:30N 28°10' W 015°24'1 1.6
2018-Apr-18 09:01N 28°10' W 015°23'1019.6
2018-Apr-18 08:30N 28°15' W 015°33'1020.5
2018-Apr-18 08:00N 28°18' W 015°44'1020.6
2018-Apr-18 07:30N 28°22' W 015°55'1120.9
2018-Apr-18 06:59N 28°27' W 016°06'8 8.1
2018-Apr-18 06:01N 28°28' W 016°15'0 0.3
2018-Apr-18 06:00N 28°28' W 016°15'0 0.0
2018-Apr-18 05:30N 28°28' W 016°15'0 0.0
2018-Apr-18 05:00N 28°28' W 016°15'0 0.0
2018-Apr-18 04:31N 28°28' W 016°15'0 0.0
2018-Apr-18 04:00N 28°28' W 016°15'0 0.0
2018-Apr-18 03:31N 28°28' W 016°15'0 0.0
2018-Apr-18 03:01N 28°28' W 016°15'0 0.0
2018-Apr-18 02:30N 28°28' W 016°15'0 0.0
2018-Apr-18 02:01N 28°28' W 016°15'0 0.0
2018-Apr-18 01:30N 28°28' W 016°15'0 0.0
2018-Apr-18 01:01N 28°28' W 016°15'0 0.0
2018-Apr-18 00:30N 28°28' W 016°15'0 0.0
2018-Apr-18 00:00N 28°28' W 016°15'0 0.0
2018-Apr-17 23:31N 28°28' W 016°15'0 0.0
2018-Apr-17 23:01N 28°28' W 016°15'0 0.0
2018-Apr-17 22:30N 28°28' W 016°15'0 0.3
2018-Apr-17 22:00N 28°28' W 016°15'816.5
2018-Apr-17 21:30N 28°26' W 016°06'1121.2
2018-Apr-17 21:00N 28°23' W 015°54'1121.1
2018-Apr-17 20:30N 28°19' W 015°43'1121.1
2018-Apr-17 20:00N 28°15' W 015°32'918.5
2018-Apr-17 19:30N 28°10' W 015°23'1 2.3
2018-Apr-17 19:00N 28°10' W 015°24'0 0.0
2018-Apr-17 18:30N 28°10' W 015°24'0 0.0
2018-Apr-17 18:00N 28°10' W 015°24'2 4.7
2018-Apr-17 17:30N 28°12' W 015°24'1020.5
2018-Apr-17 17:00N 28°15' W 015°35'1020.4
2018-Apr-17 16:31N 28°19' W 015°46'1020.6
2018-Apr-17 16:00N 28°22' W 015°57'1020.6
2018-Apr-17 15:30N 28°27' W 016°08'612.5
2018-Apr-17 15:00N 28°28' W 016°15'0 0.0
2018-Apr-17 14:30N 28°28' W 016°15'0 0.0
2018-Apr-17 14:01N 28°28' W 016°15'0 0.0
2018-Apr-17 13:30N 28°28' W 016°15'0 0.0
2018-Apr-17 13:00N 28°28' W 016°15'0 0.0
2018-Apr-17 12:30N 28°28' W 016°15'0 0.0
2018-Apr-17 12:01N 28°28' W 016°15'0 0.0
2018-Apr-17 11:31N 28°28' W 016°15'0 0.0
2018-Apr-17 11:01N 28°28' W 016°15'0 0.0
2018-Apr-17 10:30N 28°28' W 016°15'0 0.0
2018-Apr-17 10:00N 28°28' W 016°15'0 0.0
2018-Apr-17 09:30N 28°28' W 016°15'0 0.3
2018-Apr-17 09:00N 28°28' W 016°15'815.5
2018-Apr-17 08:30N 28°26' W 016°06'1121.3
2018-Apr-17 08:01N 28°23' W 015°55'1121.2
2018-Apr-17 07:30N 28°19' W 015°43'1021.1
2018-Apr-17 07:00N 28°15' W 015°32'1019.0
2018-Apr-17 06:30N 28°10' W 015°23'1 2.3
2018-Apr-17 06:00N 28°10' W 015°24'0 0.0
2018-Apr-17 05:30N 28°10' W 015°24'0 0.0
2018-Apr-17 05:00N 28°10' W 015°24'0 0.0
2018-Apr-17 04:30N 28°10' W 015°24'0 0.0
2018-Apr-17 04:00N 28°10' W 015°24'0 0.0
2018-Apr-17 03:30N 28°10' W 015°24'0 0.0
2018-Apr-17 03:00N 28°10' W 015°24'0 0.0
2018-Apr-17 02:30N 28°10' W 015°24'0 0.0
2018-Apr-17 02:00N 28°10' W 015°24'0 0.0
2018-Apr-17 01:29N 28°10' W 015°24'0 0.0
2018-Apr-17 01:00N 28°10' W 015°24'0 0.0
2018-Apr-17 00:30N 28°10' W 015°24'0 0.0
2018-Apr-17 00:00N 28°10' W 015°24'0 0.0
2018-Apr-16 23:30N 28°10' W 015°24'0 0.0
2018-Apr-16 23:00N 28°10' W 015°24'0 0.0
2018-Apr-16 22:29N 28°10' W 015°24'0 0.0
2018-Apr-16 22:00N 28°10' W 015°24'0 0.0
2018-Apr-16 21:30N 28°10' W 015°24'5 9.0
2018-Apr-16 21:00N 28°13' W 015°27'1020.8
2018-Apr-16 20:30N 28°16' W 015°39'1120.7
2018-Apr-16 20:00N 28°20' W 015°50'1020.9
2018-Apr-16 19:30N 28°24' W 016°01'1020.9
2018-Apr-16 19:01N 28°28' W 016°11'3 5.8
2018-Apr-16 18:30N 28°28' W 016°15'0 0.0
2018-Apr-16 17:59N 28°28' W 016°15'1 2.2
2018-Apr-16 17:31N 28°29' W 016°14'1019.6
2018-Apr-16 17:01N 28°26' W 016°03'1121.1
2018-Apr-16 16:30N 28°22' W 015°52'1021.0
2018-Apr-16 16:01N 28°18' W 015°41'1121.0
2018-Apr-16 15:30N 28°15' W 015°30'714.5
2018-Apr-16 15:00N 28°09' W 015°24'0 0.8
2018-Apr-16 14:30N 28°10' W 015°24'0 0.0
2018-Apr-16 14:00N 28°10' W 015°24'0 0.0
2018-Apr-16 13:30N 28°10' W 015°24'0 0.0
2018-Apr-16 12:59N 28°10' W 015°24'0 0.0
2018-Apr-16 12:30N 28°10' W 015°24'0 0.0
2018-Apr-16 12:00N 28°10' W 015°24'0 0.0
2018-Apr-16 11:30N 28°10' W 015°24'0 0.0
2018-Apr-16 11:00N 28°10' W 015°24'0 0.0
2018-Apr-16 10:30N 28°10' W 015°24'0 0.0
2018-Apr-16 10:00N 28°10' W 015°24'0 0.0
2018-Apr-16 09:30N 28°10' W 015°24'3 6.8
2018-Apr-16 09:00N 28°12' W 015°26'1020.5
2018-Apr-16 08:31N 28°16' W 015°37'1020.6
2018-Apr-16 08:00N 28°19' W 015°48'1020.7
2018-Apr-16 07:31N 28°23' W 015°59'1120.8
2018-Apr-16 06:59N 28°27' W 016°11'4 8.0
2018-Apr-16 06:30N 28°28' W 016°15'0 0.0
2018-Apr-16 06:00N 28°28' W 016°15'0 0.0
2018-Apr-16 05:30N 28°28' W 016°15'0 0.0
2018-Apr-16 05:00N 28°28' W 016°15'0 0.0
2018-Apr-16 04:30N 28°28' W 016°15'0 0.0
2018-Apr-16 04:00N 28°28' W 016°15'0 0.0
2018-Apr-16 03:30N 28°28' W 016°15'0 0.0
2018-Apr-16 03:00N 28°28' W 016°15'0 0.0
2018-Apr-16 02:30N 28°28' W 016°15'0 0.0
2018-Apr-16 02:00N 28°28' W 016°15'0 0.0
2018-Apr-16 01:30N 28°28' W 016°15'0 0.0
2018-Apr-16 00:59N 28°28' W 016°15'0 0.0
2018-Apr-16 00:30N 28°28' W 016°15'0 0.0
2018-Apr-16 00:00N 28°28' W 016°15'0 0.0
2018-Apr-15 23:30N 28°28' W 016°15'0 0.0
2018-Apr-15 23:00N 28°28' W 016°15'0 0.0
2018-Apr-15 22:30N 28°28' W 016°15'0 0.0
2018-Apr-15 22:00N 28°28' W 016°15'0 0.0
2018-Apr-15 21:30N 28°28' W 016°15'1 1.1
2018-Apr-15 21:00N 28°29' W 016°14'1019.5
2018-Apr-15 20:30N 28°26' W 016°04'1121.5
2018-Apr-15 20:00N 28°22' W 015°52'1121.5
2018-Apr-15 19:30N 28°18' W 015°41'1121.5
2018-Apr-15 19:00N 28°14' W 015°30'712.9
2018-Apr-15 18:29N 28°10' W 015°24'0 0.1
2018-Apr-15 18:00N 28°10' W 015°24'0 0.0
2018-Apr-15 17:30N 28°10' W 015°24'0 0.9
2018-Apr-15 17:00N 28°09' W 015°24'918.0
2018-Apr-15 16:30N 28°15' W 015°32'1020.5
2018-Apr-15 16:00N 28°19' W 015°42'1020.7
2018-Apr-15 15:31N 28°23' W 015°53'1020.9
2018-Apr-15 15:01N 28°26' W 016°04'918.6
2018-Apr-15 14:30N 28°28' W 016°15'0 0.4
2018-Apr-15 14:00N 28°28' W 016°15'0 0.0
2018-Apr-15 13:30N 28°28' W 016°15'0 0.0
2018-Apr-15 13:00N 28°28' W 016°15'0 0.0
2018-Apr-15 12:31N 28°28' W 016°15'0 0.0
2018-Apr-15 12:00N 28°28' W 016°15'0 0.0
2018-Apr-15 11:31N 28°28' W 016°15'0 0.0
2018-Apr-15 11:00N 28°28' W 016°15'0 0.0
2018-Apr-15 10:30N 28°28' W 016°15'0 0.0
2018-Apr-15 10:00N 28°28' W 016°15'1 2.5
2018-Apr-15 09:31N 28°29' W 016°13'1121.3
2018-Apr-15 09:00N 28°25' W 016°02'1121.2
2018-Apr-15 08:30N 28°21' W 015°51'1020.7
2018-Apr-15 08:00N 28°17' W 015°40'1020.9
2018-Apr-15 07:30N 28°14' W 015°29'611.7
2018-Apr-15 07:00N 28°10' W 015°24'0 0.0
2018-Apr-15 06:28N 28°10' W 015°24'0 0.0
2018-Apr-15 06:00N 28°10' W 015°24'0 0.0
2018-Apr-15 05:27N 28°10' W 015°24'0 0.0
2018-Apr-15 05:00N 28°10' W 015°24'0 0.0
2018-Apr-15 04:30N 28°10' W 015°24'0 0.0
2018-Apr-15 04:00N 28°10' W 015°24'0 0.0
2018-Apr-15 03:30N 28°10' W 015°24'0 0.0
2018-Apr-15 02:59N 28°10' W 015°24'0 0.0
2018-Apr-15 02:30N 28°10' W 015°24'0 0.0
2018-Apr-15 02:00N 28°10' W 015°24'0 0.0
2018-Apr-15 01:30N 28°10' W 015°24'0 0.0
2018-Apr-15 01:00N 28°10' W 015°24'0 0.0
2018-Apr-15 00:27N 28°10' W 015°24'0 0.0
2018-Apr-15 00:00N 28°10' W 015°24'0 0.0
2018-Apr-14 23:30N 28°10' W 015°24'0 0.0
2018-Apr-14 23:00N 28°10' W 015°24'0 0.0
2018-Apr-14 22:28N 28°10' W 015°24'0 0.0
2018-Apr-14 21:59N 28°10' W 015°24'0 0.0
2018-Apr-14 21:29N 28°10' W 015°24'0 0.0
2018-Apr-14 21:00N 28°10' W 015°24'0 0.0
2018-Apr-14 20:30N 28°10' W 015°24'0 0.0
2018-Apr-14 19:58N 28°10' W 015°24'0 0.0
2018-Apr-14 19:30N 28°10' W 015°24'0 0.0
2018-Apr-14 18:59N 28°10' W 015°24'0 0.0
2018-Apr-14 18:29N 28°10' W 015°24'0 0.0
2018-Apr-14 18:00N 28°10' W 015°24'0 0.0
2018-Apr-14 17:28N 28°10' W 015°24'0 0.0
2018-Apr-14 17:00N 28°10' W 015°24'0 0.0
2018-Apr-14 16:29N 28°10' W 015°24'0 0.0
2018-Apr-14 16:00N 28°10' W 015°24'1 1.1
2018-Apr-14 15:31N 28°09' W 015°24'1020.3
2018-Apr-14 15:00N 28°14' W 015°14'1020.8
2018-Apr-14 14:30N 28°18' W 015°03'1020.5
2018-Apr-14 14:00N 28°23' W 014°53'1020.5
2018-Apr-14 13:30N 28°28' W 014°42'1020.5
2018-Apr-14 13:00N 28°32' W 014°32'4020.4
2018-Apr-14 11:02N 28°49' W 013°50'221.3
2018-Apr-14 10:58N 28°49' W 013°48'1021.1
2018-Apr-14 10:30N 28°53' W 013°38'812.7
2018-Apr-14 09:53N 28°58' W 013°32'0 0.0
2018-Apr-14 09:24N 28°58' W 013°32'0 0.0
2018-Apr-14 08:53N 28°58' W 013°32'0 0.0
2018-Apr-14 08:22N 28°58' W 013°32'0 0.0
2018-Apr-14 07:55N 28°58' W 013°32'0 0.0
2018-Apr-14 07:30N 28°58' W 013°32'0 0.0
2018-Apr-14 06:57N 28°58' W 013°32'0 0.0
2018-Apr-14 06:26N 28°58' W 013°32'0 0.0
2018-Apr-14 06:00N 28°58' W 013°32'0 0.0
2018-Apr-14 05:25N 28°58' W 013°32'1 2.1
2018-Apr-14 05:00N 28°57' W 013°32'816.4
2018-Apr-14 04:30N 28°53' W 013°40'918.3
2018-Apr-14 04:00N 28°49' W 013°49'918.3
2018-Apr-14 03:30N 28°46' W 013°59'3619.2
2018-Apr-14 01:39N 28°31' W 014°36'319.7
2018-Apr-14 01:30N 28°29' W 014°39'1019.7
2018-Apr-14 01:01N 28°25' W 014°49'1019.3
2018-Apr-14 00:30N 28°20' W 014°58'1019.0
2018-Apr-14 00:00N 28°16' W 015°08'919.1
2018-Apr-13 23:31N 28°12' W 015°18'611.9
2018-Apr-13 23:00N 28°10' W 015°24'0 0.0
2018-Apr-13 22:29N 28°10' W 015°24'0 0.0
2018-Apr-13 21:59N 28°10' W 015°24'0 0.0
2018-Apr-13 21:25N 28°10' W 015°24'0 0.0
2018-Apr-13 20:57N 28°10' W 015°24'0 0.0
2018-Apr-13 20:29N 28°10' W 015°24'0 0.0
2018-Apr-13 20:00N 28°10' W 015°24'0 0.0
2018-Apr-13 19:30N 28°10' W 015°24'0 0.0
2018-Apr-13 19:00N 28°10' W 015°24'0 0.0
2018-Apr-13 18:30N 28°10' W 015°24'1 1.3
2018-Apr-13 18:00N 28°10' W 015°23'918.8
2018-Apr-13 17:30N 28°14' W 015°33'2020.3
2018-Apr-13 16:30N 28°22' W 015°54'1919.3
2018-Apr-13 15:30N 28°28' W 016°15'0 0.4
2018-Apr-13 15:00N 28°28' W 016°15'0 0.0
2018-Apr-13 14:30N 28°28' W 016°15'0 0.0
2018-Apr-13 14:00N 28°28' W 016°15'0 0.0
2018-Apr-13 13:30N 28°28' W 016°15'0 0.0
2018-Apr-13 13:00N 28°28' W 016°15'0 0.0
2018-Apr-13 12:30N 28°28' W 016°15'0 0.0
2018-Apr-13 12:00N 28°28' W 016°15'0 0.0
2018-Apr-13 11:30N 28°28' W 016°15'0 0.0
2018-Apr-13 11:00N 28°28' W 016°15'0 0.0
2018-Apr-13 10:30N 28°28' W 016°15'0 0.0
2018-Apr-13 10:00N 28°28' W 016°15'0 0.0
2018-Apr-13 09:30N 28°28' W 016°15'713.0
2018-Apr-13 09:00N 28°27' W 016°07'1020.9
2018-Apr-13 08:31N 28°23' W 015°56'1020.8
2018-Apr-13 08:00N 28°19' W 015°45'1020.5
2018-Apr-13 07:30N 28°15' W 015°34'1020.3
2018-Apr-13 07:00N 28°12' W 015°24'2 4.5
2018-Apr-13 06:30N 28°10' W 015°24'0 0.0
2018-Apr-13 05:58N 28°10' W 015°24'0 0.0
2018-Apr-13 05:30N 28°10' W 015°24'0 0.0
2018-Apr-13 05:00N 28°10' W 015°24'0 0.0
2018-Apr-13 04:30N 28°10' W 015°24'0 0.0
2018-Apr-13 04:00N 28°10' W 015°24'0 0.0
2018-Apr-13 03:30N 28°10' W 015°24'0 0.0
2018-Apr-13 03:00N 28°10' W 015°24'0 0.0
2018-Apr-13 02:30N 28°10' W 015°24'0 0.0
2018-Apr-13 02:00N 28°10' W 015°24'0 0.0
2018-Apr-13 01:30N 28°10' W 015°24'0 0.0
2018-Apr-13 01:00N 28°10' W 015°24'0 0.0
2018-Apr-13 00:30N 28°10' W 015°24'0 0.0
2018-Apr-13 00:00N 28°10' W 015°24'0 0.0
2018-Apr-12 23:30N 28°10' W 015°24'0 0.0
2018-Apr-12 23:00N 28°10' W 015°24'0 0.0
2018-Apr-12 22:30N 28°10' W 015°24'0 0.0
2018-Apr-12 22:00N 28°10' W 015°24'4 7.8
2018-Apr-12 21:30N 28°13' W 015°26'1121.9
2018-Apr-12 21:00N 28°17' W 015°38'1121.8
2018-Apr-12 20:30N 28°21' W 015°49'1121.7
2018-Apr-12 20:00N 28°25' W 016°01'1122.0
2018-Apr-12 19:30N 28°29' W 016°13'2 3.5
2018-Apr-12 19:00N 28°28' W 016°15'0 0.0
2018-Apr-12 18:30N 28°28' W 016°15'1 1.9
2018-Apr-12 18:00N 28°29' W 016°14'1021.0
2018-Apr-12 17:31N 28°25' W 016°03'1121.7
2018-Apr-12 17:00N 28°21' W 015°51'1020.9
2018-Apr-12 16:30N 28°18' W 015°40'1020.9
2018-Apr-12 16:00N 28°14' W 015°29'612.1
2018-Apr-12 15:30N 28°10' W 015°24'0 0.1
2018-Apr-12 15:00N 28°10' W 015°24'0 0.0
2018-Apr-12 14:30N 28°10' W 015°24'0 0.0
2018-Apr-12 13:59N 28°10' W 015°24'0 0.0
2018-Apr-12 13:30N 28°10' W 015°24'510.7
2018-Apr-12 13:00N 28°11' W 015°18'1121.7
2018-Apr-12 12:30N 28°16' W 015°07'1121.7
2018-Apr-12 12:00N 28°21' W 014°56'1121.5
2018-Apr-12 11:30N 28°26' W 014°45'1121.6
2018-Apr-12 11:00N 28°31' W 014°35'3321.3
2018-Apr-12 09:26N 28°46' W 014°01'921.6
2018-Apr-12 09:00N 28°48' W 013°50'919.2
2018-Apr-12 08:30N 28°52' W 013°40'10 7.9
2018-Apr-12 07:16N 28°58' W 013°32'0 0.0
2018-Apr-12 06:53N 28°58' W 013°32'0 0.0
2018-Apr-12 06:27N 28°58' W 013°32'0 0.0
2018-Apr-12 05:59N 28°58' W 013°32'0 0.0
2018-Apr-12 05:30N 28°58' W 013°32'4 7.7
2018-Apr-12 04:58N 28°55' W 013°35'818.1
2018-Apr-12 04:30N 28°51' W 013°43'917.9
2018-Apr-12 04:00N 28°48' W 013°53'1017.5
2018-Apr-12 03:27N 28°45' W 014°03'3217.8
2018-Apr-12 01:39N 28°31' W 014°36'318.0
2018-Apr-12 01:30N 28°29' W 014°38'918.1
2018-Apr-12 01:00N 28°25' W 014°48'918.1
2018-Apr-12 00:30N 28°21' W 014°57'918.1
2018-Apr-12 00:00N 28°17' W 015°06'918.4
2018-Apr-11 23:30N 28°13' W 015°15'917.1
2018-Apr-11 23:00N 28°09' W 015°24'0 0.7
2018-Apr-11 22:27N 28°10' W 015°24'0 0.0
2018-Apr-11 22:00N 28°10' W 015°24'0 0.0
2018-Apr-11 21:30N 28°10' W 015°24'0 0.0
2018-Apr-11 21:00N 28°10' W 015°24'0 0.0
2018-Apr-11 20:30N 28°10' W 015°24'0 0.0
2018-Apr-11 20:00N 28°10' W 015°24'0 0.0
2018-Apr-11 19:30N 28°10' W 015°24'0 0.0
2018-Apr-11 18:58N 28°10' W 015°24'0 0.0
2018-Apr-11 18:30N 28°10' W 015°24'0 0.0
2018-Apr-11 18:00N 28°10' W 015°24'1 1.2
2018-Apr-11 17:30N 28°09' W 015°24'917.2
2018-Apr-11 17:00N 28°14' W 015°31'1020.7
2018-Apr-11 16:30N 28°18' W 015°42'1020.6
2018-Apr-11 16:00N 28°22' W 015°53'1020.9
2018-Apr-11 15:31N 28°26' W 016°04'918.6
2018-Apr-11 15:00N 28°29' W 016°14'0 0.7
2018-Apr-11 14:30N 28°28' W 016°15'0 0.0
2018-Apr-11 14:00N 28°28' W 016°15'0 0.0
2018-Apr-11 13:30N 28°28' W 016°15'0 0.0
2018-Apr-11 13:00N 28°28' W 016°15'0 0.0
2018-Apr-11 12:30N 28°28' W 016°15'0 0.0
2018-Apr-11 12:00N 28°28' W 016°15'0 0.0
2018-Apr-11 11:30N 28°28' W 016°15'0 0.0
2018-Apr-11 11:00N 28°28' W 016°15'0 0.0
2018-Apr-11 10:30N 28°28' W 016°15'0 0.0
2018-Apr-11 10:00N 28°28' W 016°15'0 0.0
2018-Apr-11 09:30N 28°28' W 016°15'0 0.4
2018-Apr-11 09:01N 28°28' W 016°15'815.8
2018-Apr-11 08:30N 28°26' W 016°06'1020.5
2018-Apr-11 08:01N 28°23' W 015°55'1020.1
2018-Apr-11 07:30N 28°19' W 015°44'1020.1
2018-Apr-11 07:00N 28°15' W 015°34'1019.9
2018-Apr-11 06:31N 28°12' W 015°23'2 4.5
2018-Apr-11 06:00N 28°10' W 015°24'0 0.0
2018-Apr-11 05:30N 28°10' W 015°24'0 0.0
2018-Apr-11 05:00N 28°10' W 015°24'0 0.0
2018-Apr-11 04:30N 28°10' W 015°24'0 0.0
2018-Apr-11 04:00N 28°10' W 015°24'  
Track history (hours):
 
Tides and Currents Weather Stations Pressure Air Temp Water Temp Dewpoint Dewpoint Depression Visibility Wind Speed Wind Dir Waves Ship Positions

Volcan De Tijarafe

Last reported at 2018-Apr-21 04:00 UTC. Time now 2018-Apr-21 04:08 UTC.
Position N 28°10' W 015°24'.

Length 154 m; draft 5.2 m.

Type: Passenger vessel. MMSI: 224692000.

Date/timePositionNaut miles runAvg speedWind from/ knotsBaromVisibWave heightAir tempDewpointWater temp
2018-Apr-21 04:00N 28°10' W 015°24'0 0.0
2018-Apr-21 03:30N 28°10' W 015°24'0 0.0
2018-Apr-21 03:00N 28°10' W 015°24'0 0.0
2018-Apr-21 02:31N 28°10' W 015°24'0 0.0
2018-Apr-21 02:00N 28°10' W 015°24'0 0.0
2018-Apr-21 01:30N 28°10' W 015°24'0 0.0
2018-Apr-21 00:59N 28°10' W 015°24'0 0.0
2018-Apr-21 00:30N 28°10' W 015°24'0 0.0
2018-Apr-21 00:00N 28°10' W 015°24'0 0.0
2018-Apr-20 23:30N 28°10' W 015°24'0 0.0
2018-Apr-20 23:00N 28°10' W 015°24'0 0.0
2018-Apr-20 22:30N 28°10' W 015°24'0 0.4
2018-Apr-20 22:00N 28°09' W 015°24'713.2
2018-Apr-20 21:30N 28°13' W 015°30'1020.7
2018-Apr-20 21:00N 28°17' W 015°41'1020.7
2018-Apr-20 20:30N 28°21' W 015°52'1020.9
2018-Apr-20 20:00N 28°25' W 016°03'1020.9
2018-Apr-20 19:30N 28°29' W 016°14'1 2.0
2018-Apr-20 19:00N 28°28' W 016°15'0 0.0
2018-Apr-20 18:30N 28°28' W 016°15'3 5.4
2018-Apr-20 18:00N 28°28' W 016°12'1020.6
2018-Apr-20 17:30N 28°25' W 016°01'1020.2
2018-Apr-20 17:00N 28°21' W 015°50'1020.3
2018-Apr-20 16:30N 28°17' W 015°39'1020.2
2018-Apr-20 16:00N 28°14' W 015°28'611.1
2018-Apr-20 15:30N 28°10' W 015°24'0 0.0
2018-Apr-20 15:00N 28°10' W 015°24'0 0.0
2018-Apr-20 14:30N 28°10' W 015°24'0 0.0
2018-Apr-20 14:00N 28°10' W 015°24'0 0.0
2018-Apr-20 13:29N 28°10' W 015°24'511.7
2018-Apr-20 13:00N 28°11' W 015°18'1121.8
2018-Apr-20 12:30N 28°16' W 015°07'1121.8
2018-Apr-20 12:00N 28°21' W 014°56'1121.7
2018-Apr-20 11:30N 28°26' W 014°45'4321.2
2018-Apr-20 09:28N 28°46' W 014°01'1020.9
2018-Apr-20 08:58N 28°49' W 013°50'1021.9
2018-Apr-20 08:30N 28°53' W 013°39'916.9
2018-Apr-20 07:59N 28°58' W 013°32'0 0.0
2018-Apr-20 07:30N 28°58' W 013°32'0 0.0
2018-Apr-20 06:55N 28°58' W 013°32'0 0.0
2018-Apr-20 06:29N 28°58' W 013°32'0 0.0
2018-Apr-20 05:59N 28°58' W 013°32'0 0.0
2018-Apr-20 05:26N 28°58' W 013°32'3 7.7
2018-Apr-20 05:00N 28°56' W 013°34'918.0
2018-Apr-20 04:30N 28°51' W 013°43'1017.3
2018-Apr-20 03:57N 28°48' W 013°53'4418.0
2018-Apr-20 01:30N 28°30' W 014°39'917.8
2018-Apr-20 01:00N 28°25' W 014°48'918.1
2018-Apr-20 00:30N 28°21' W 014°57'917.8
2018-Apr-20 00:00N 28°17' W 015°06'917.1
2018-Apr-19 23:30N 28°13' W 015°14'917.7
2018-Apr-19 23:00N 28°09' W 015°23'1 1.7
2018-Apr-19 22:30N 28°10' W 015°24'0 0.0
2018-Apr-19 22:00N 28°10' W 015°24'0 0.0
2018-Apr-19 21:30N 28°10' W 015°24'0 0.0
2018-Apr-19 21:00N 28°10' W 015°24'0 0.0
2018-Apr-19 20:30N 28°10' W 015°24'0 0.0
2018-Apr-19 20:00N 28°10' W 015°24'0 0.0
2018-Apr-19 19:28N 28°10' W 015°24'0 0.0
2018-Apr-19 19:00N 28°10' W 015°24'0 0.0
2018-Apr-19 18:30N 28°10' W 015°24'0 0.0
2018-Apr-19 18:00N 28°10' W 015°24'611.3
2018-Apr-19 17:30N 28°08' W 015°18'1020.1
2018-Apr-19 17:00N 28°06' W 015°07'1020.5
2018-Apr-19 16:30N 28°05' W 014°55'1020.4
2018-Apr-19 16:00N 28°03' W 014°44'1020.3
2018-Apr-19 15:30N 28°02' W 014°32'910.0
2018-Apr-19 14:34N 28°03' W 014°22'0 0.0
2018-Apr-19 14:08N 28°03' W 014°22'0 0.0
2018-Apr-19 13:53N 28°03' W 014°22'0 0.0
2018-Apr-19 13:22N 28°03' W 014°22'0 0.0
2018-Apr-19 12:55N 28°03' W 014°22'0 0.0
2018-Apr-19 12:30N 28°03' W 014°22'0 0.0
2018-Apr-19 12:00N 28°03' W 014°22'0 0.0
2018-Apr-19 11:30N 28°03' W 014°22'0 0.0
2018-Apr-19 10:59N 28°03' W 014°22'0 0.0
2018-Apr-19 10:30N 28°03' W 014°22'0 0.0
2018-Apr-19 10:00N 28°03' W 014°22'510.4
2018-Apr-19 09:30N 28°02' W 014°28'1220.6
2018-Apr-19 08:56N 28°03' W 014°41'920.5
2018-Apr-19 08:30N 28°04' W 014°51'1020.6
2018-Apr-19 08:00N 28°06' W 015°02'1020.4
2018-Apr-19 07:30N 28°07' W 015°14'918.6
2018-Apr-19 07:00N 28°09' W 015°24'0 0.4
2018-Apr-19 06:30N 28°10' W 015°24'0 0.0
2018-Apr-19 06:00N 28°10' W 015°24'0 0.0
2018-Apr-19 05:30N 28°10' W 015°24'0 0.0
2018-Apr-19 05:00N 28°10' W 015°24'0 0.0
2018-Apr-19 04:30N 28°10' W 015°24'0 0.0
2018-Apr-19 03:59N 28°10' W 015°24'0 0.0
2018-Apr-19 03:30N 28°10' W 015°24'0 0.0
2018-Apr-19 03:00N 28°10' W 015°24'0 0.0
2018-Apr-19 02:28N 28°10' W 015°24'0 0.0
2018-Apr-19 02:00N 28°10' W 015°24'0 0.0
2018-Apr-19 01:30N 28°10' W 015°24'0 0.0
2018-Apr-19 01:00N 28°10' W 015°24'0 0.0
2018-Apr-19 00:30N 28°10' W 015°24'0 0.0
2018-Apr-19 00:00N 28°10' W 015°24'0 0.0
2018-Apr-18 23:30N 28°10' W 015°24'0 0.0
2018-Apr-18 23:00N 28°10' W 015°24'0 0.0
2018-Apr-18 22:29N 28°10' W 015°24'0 0.0
2018-Apr-18 22:00N 28°10' W 015°24'0 0.5
2018-Apr-18 21:30N 28°09' W 015°24'714.0
2018-Apr-18 21:01N 28°14' W 015°30'1020.7
2018-Apr-18 20:31N 28°17' W 015°41'1020.7
2018-Apr-18 20:00N 28°21' W 015°52'1020.9
2018-Apr-18 19:30N 28°25' W 016°03'1020.8
2018-Apr-18 19:01N 28°29' W 016°14'1 1.5
2018-Apr-18 18:30N 28°28' W 016°15'0 0.0
2018-Apr-18 18:00N 28°28' W 016°15'1 1.6
2018-Apr-18 17:30N 28°29' W 016°14'1019.8
2018-Apr-18 17:00N 28°25' W 016°04'1020.8
2018-Apr-18 16:30N 28°22' W 015°52'1020.9
2018-Apr-18 16:00N 28°18' W 015°41'1021.0
2018-Apr-18 15:30N 28°14' W 015°30'815.0
2018-Apr-18 15:00N 28°09' W 015°24'1 1.0
2018-Apr-18 14:27N 28°10' W 015°24'0 0.0
2018-Apr-18 14:00N 28°10' W 015°24'0 0.0
2018-Apr-18 13:30N 28°10' W 015°24'0 0.0
2018-Apr-18 13:00N 28°10' W 015°24'0 0.0
2018-Apr-18 12:30N 28°10' W 015°24'0 0.0
2018-Apr-18 12:00N 28°10' W 015°24'0 0.0
2018-Apr-18 11:30N 28°10' W 015°24'0 0.0
2018-Apr-18 11:00N 28°10' W 015°24'0 0.0
2018-Apr-18 10:30N 28°10' W 015°24'0 0.0
2018-Apr-18 10:00N 28°10' W 015°24'0 0.0
2018-Apr-18 09:30N 28°10' W 015°24'1 1.6
2018-Apr-18 09:01N 28°10' W 015°23'1019.6
2018-Apr-18 08:30N 28°15' W 015°33'1020.5
2018-Apr-18 08:00N 28°18' W 015°44'1020.6
2018-Apr-18 07:30N 28°22' W 015°55'1120.9
2018-Apr-18 06:59N 28°27' W 016°06'8 8.1
2018-Apr-18 06:01N 28°28' W 016°15'0 0.3
2018-Apr-18 06:00N 28°28' W 016°15'0 0.0
2018-Apr-18 05:30N 28°28' W 016°15'0 0.0
2018-Apr-18 05:00N 28°28' W 016°15'0 0.0
2018-Apr-18 04:31N 28°28' W 016°15'0 0.0
2018-Apr-18 04:00N 28°28' W 016°15'0 0.0
2018-Apr-18 03:31N 28°28' W 016°15'0 0.0
2018-Apr-18 03:01N 28°28' W 016°15'0 0.0
2018-Apr-18 02:30N 28°28' W 016°15'0 0.0
2018-Apr-18 02:01N 28°28' W 016°15'0 0.0
2018-Apr-18 01:30N 28°28' W 016°15'0 0.0
2018-Apr-18 01:01N 28°28' W 016°15'0 0.0
2018-Apr-18 00:30N 28°28' W 016°15'0 0.0
2018-Apr-18 00:00N 28°28' W 016°15'0 0.0
2018-Apr-17 23:31N 28°28' W 016°15'0 0.0
2018-Apr-17 23:01N 28°28' W 016°15'0 0.0
2018-Apr-17 22:30N 28°28' W 016°15'0 0.3
2018-Apr-17 22:00N 28°28' W 016°15'816.5
2018-Apr-17 21:30N 28°26' W 016°06'1121.2
2018-Apr-17 21:00N 28°23' W 015°54'1121.1
2018-Apr-17 20:30N 28°19' W 015°43'1121.1
2018-Apr-17 20:00N 28°15' W 015°32'918.5
2018-Apr-17 19:30N 28°10' W 015°23'1 2.3
2018-Apr-17 19:00N 28°10' W 015°24'0 0.0
2018-Apr-17 18:30N 28°10' W 015°24'0 0.0
2018-Apr-17 18:00N 28°10' W 015°24'2 4.7
2018-Apr-17 17:30N 28°12' W 015°24'1020.5
2018-Apr-17 17:00N 28°15' W 015°35'1020.4
2018-Apr-17 16:31N 28°19' W 015°46'1020.6
2018-Apr-17 16:00N 28°22' W 015°57'1020.6
2018-Apr-17 15:30N 28°27' W 016°08'612.5
2018-Apr-17 15:00N 28°28' W 016°15'0 0.0
2018-Apr-17 14:30N 28°28' W 016°15'0 0.0
2018-Apr-17 14:01N 28°28' W 016°15'0 0.0
2018-Apr-17 13:30N 28°28' W 016°15'0 0.0
2018-Apr-17 13:00N 28°28' W 016°15'0 0.0
2018-Apr-17 12:30N 28°28' W 016°15'0 0.0
2018-Apr-17 12:01N 28°28' W 016°15'0 0.0
2018-Apr-17 11:31N 28°28' W 016°15'0 0.0
2018-Apr-17 11:01N 28°28' W 016°15'0 0.0
2018-Apr-17 10:30N 28°28' W 016°15'0 0.0
2018-Apr-17 10:00N 28°28' W 016°15'0 0.0
2018-Apr-17 09:30N 28°28' W 016°15'0 0.3
2018-Apr-17 09:00N 28°28' W 016°15'815.5
2018-Apr-17 08:30N 28°26' W 016°06'1121.3
2018-Apr-17 08:01N 28°23' W 015°55'1121.2
2018-Apr-17 07:30N 28°19' W 015°43'1021.1
2018-Apr-17 07:00N 28°15' W 015°32'1019.0
2018-Apr-17 06:30N 28°10' W 015°23'1 2.3
2018-Apr-17 06:00N 28°10' W 015°24'0 0.0
2018-Apr-17 05:30N 28°10' W 015°24'0 0.0
2018-Apr-17 05:00N 28°10' W 015°24'0 0.0
2018-Apr-17 04:30N 28°10' W 015°24'0 0.0
2018-Apr-17 04:00N 28°10' W 015°24'0 0.0
2018-Apr-17 03:30N 28°10' W 015°24'0 0.0
2018-Apr-17 03:00N 28°10' W 015°24'0 0.0
2018-Apr-17 02:30N 28°10' W 015°24'0 0.0
2018-Apr-17 02:00N 28°10' W 015°24'0 0.0
2018-Apr-17 01:29N 28°10' W 015°24'0 0.0
2018-Apr-17 01:00N 28°10' W 015°24'0 0.0
2018-Apr-17 00:30N 28°10' W 015°24'0 0.0
2018-Apr-17 00:00N 28°10' W 015°24'0 0.0
2018-Apr-16 23:30N 28°10' W 015°24'0 0.0
2018-Apr-16 23:00N 28°10' W 015°24'0 0.0
2018-Apr-16 22:29N 28°10' W 015°24'0 0.0
2018-Apr-16 22:00N 28°10' W 015°24'0 0.0
2018-Apr-16 21:30N 28°10' W 015°24'5 9.0
2018-Apr-16 21:00N 28°13' W 015°27'1020.8
2018-Apr-16 20:30N 28°16' W 015°39'1120.7
2018-Apr-16 20:00N 28°20' W 015°50'1020.9
2018-Apr-16 19:30N 28°24' W 016°01'1020.9
2018-Apr-16 19:01N 28°28' W 016°11'3 5.8
2018-Apr-16 18:30N 28°28' W 016°15'0 0.0
2018-Apr-16 17:59N 28°28' W 016°15'1 2.2
2018-Apr-16 17:31N 28°29' W 016°14'1019.6
2018-Apr-16 17:01N 28°26' W 016°03'1121.1
2018-Apr-16 16:30N 28°22' W 015°52'1021.0
2018-Apr-16 16:01N 28°18' W 015°41'1121.0
2018-Apr-16 15:30N 28°15' W 015°30'714.5
2018-Apr-16 15:00N 28°09' W 015°24'0 0.8
2018-Apr-16 14:30N 28°10' W 015°24'0 0.0
2018-Apr-16 14:00N 28°10' W 015°24'0 0.0
2018-Apr-16 13:30N 28°10' W 015°24'0 0.0
2018-Apr-16 12:59N 28°10' W 015°24'0 0.0
2018-Apr-16 12:30N 28°10' W 015°24'0 0.0
2018-Apr-16 12:00N 28°10' W 015°24'0 0.0
2018-Apr-16 11:30N 28°10' W 015°24'0 0.0
2018-Apr-16 11:00N 28°10' W 015°24'0 0.0
2018-Apr-16 10:30N 28°10' W 015°24'0 0.0
2018-Apr-16 10:00N 28°10' W 015°24'0 0.0
2018-Apr-16 09:30N 28°10' W 015°24'3 6.8
2018-Apr-16 09:00N 28°12' W 015°26'1020.5
2018-Apr-16 08:31N 28°16' W 015°37'1020.6
2018-Apr-16 08:00N 28°19' W 015°48'1020.7
2018-Apr-16 07:31N 28°23' W 015°59'1120.8
2018-Apr-16 06:59N 28°27' W 016°11'4 8.0
2018-Apr-16 06:30N 28°28' W 016°15'0 0.0
2018-Apr-16 06:00N 28°28' W 016°15'0 0.0
2018-Apr-16 05:30N 28°28' W 016°15'0 0.0
2018-Apr-16 05:00N 28°28' W 016°15'0 0.0
2018-Apr-16 04:30N 28°28' W 016°15'0 0.0
2018-Apr-16 04:00N 28°28' W 016°15'0 0.0
2018-Apr-16 03:30N 28°28' W 016°15'0 0.0
2018-Apr-16 03:00N 28°28' W 016°15'0 0.0
2018-Apr-16 02:30N 28°28' W 016°15'0 0.0
2018-Apr-16 02:00N 28°28' W 016°15'0 0.0
2018-Apr-16 01:30N 28°28' W 016°15'0 0.0
2018-Apr-16 00:59N 28°28' W 016°15'0 0.0
2018-Apr-16 00:30N 28°28' W 016°15'0 0.0
2018-Apr-16 00:00N 28°28' W 016°15'0 0.0
2018-Apr-15 23:30N 28°28' W 016°15'0 0.0
2018-Apr-15 23:00N 28°28' W 016°15'0 0.0
2018-Apr-15 22:30N 28°28' W 016°15'0 0.0
2018-Apr-15 22:00N 28°28' W 016°15'0 0.0
2018-Apr-15 21:30N 28°28' W 016°15'1 1.1
2018-Apr-15 21:00N 28°29' W 016°14'1019.5
2018-Apr-15 20:30N 28°26' W 016°04'1121.5
2018-Apr-15 20:00N 28°22' W 015°52'1121.5
2018-Apr-15 19:30N 28°18' W 015°41'1121.5
2018-Apr-15 19:00N 28°14' W 015°30'712.9
2018-Apr-15 18:29N 28°10' W 015°24'0 0.1
2018-Apr-15 18:00N 28°10' W 015°24'0 0.0
2018-Apr-15 17:30N 28°10' W 015°24'0 0.9
2018-Apr-15 17:00N 28°09' W 015°24'918.0
2018-Apr-15 16:30N 28°15' W 015°32'1020.5
2018-Apr-15 16:00N 28°19' W 015°42'1020.7
2018-Apr-15 15:31N 28°23' W 015°53'1020.9
2018-Apr-15 15:01N 28°26' W 016°04'918.6
2018-Apr-15 14:30N 28°28' W 016°15'0 0.4
2018-Apr-15 14:00N 28°28' W 016°15'0 0.0
2018-Apr-15 13:30N 28°28' W 016°15'0 0.0
2018-Apr-15 13:00N 28°28' W 016°15'0 0.0
2018-Apr-15 12:31N 28°28' W 016°15'0 0.0
2018-Apr-15 12:00N 28°28' W 016°15'0 0.0
2018-Apr-15 11:31N 28°28' W 016°15'0 0.0
2018-Apr-15 11:00N 28°28' W 016°15'0 0.0
2018-Apr-15 10:30N 28°28' W 016°15'0 0.0
2018-Apr-15 10:00N 28°28' W 016°15'1 2.5
2018-Apr-15 09:31N 28°29' W 016°13'1121.3
2018-Apr-15 09:00N 28°25' W 016°02'1121.2
2018-Apr-15 08:30N 28°21' W 015°51'1020.7
2018-Apr-15 08:00N 28°17' W 015°40'1020.9
2018-Apr-15 07:30N 28°14' W 015°29'611.7
2018-Apr-15 07:00N 28°10' W 015°24'0 0.0
2018-Apr-15 06:28N 28°10' W 015°24'0 0.0
2018-Apr-15 06:00N 28°10' W 015°24'0 0.0
2018-Apr-15 05:27N 28°10' W 015°24'0 0.0
2018-Apr-15 05:00N 28°10' W 015°24'0 0.0
2018-Apr-15 04:30N 28°10' W 015°24'0 0.0
2018-Apr-15 04:00N 28°10' W 015°24'0 0.0
2018-Apr-15 03:30N 28°10' W 015°24'0 0.0
2018-Apr-15 02:59N 28°10' W 015°24'0 0.0
2018-Apr-15 02:30N 28°10' W 015°24'0 0.0
2018-Apr-15 02:00N 28°10' W 015°24'0 0.0
2018-Apr-15 01:30N 28°10' W 015°24'0 0.0
2018-Apr-15 01:00N 28°10' W 015°24'0 0.0
2018-Apr-15 00:27N 28°10' W 015°24'0 0.0
2018-Apr-15 00:00N 28°10' W 015°24'0 0.0
2018-Apr-14 23:30N 28°10' W 015°24'0 0.0
2018-Apr-14 23:00N 28°10' W 015°24'0 0.0
2018-Apr-14 22:28N 28°10' W 015°24'0 0.0
2018-Apr-14 21:59N 28°10' W 015°24'0 0.0
2018-Apr-14 21:29N 28°10' W 015°24'0 0.0
2018-Apr-14 21:00N 28°10' W 015°24'0 0.0
2018-Apr-14 20:30N 28°10' W 015°24'0 0.0
2018-Apr-14 19:58N 28°10' W 015°24'0 0.0
2018-Apr-14 19:30N 28°10' W 015°24'0 0.0
2018-Apr-14 18:59N 28°10' W 015°24'0 0.0
2018-Apr-14 18:29N 28°10' W 015°24'0 0.0
2018-Apr-14 18:00N 28°10' W 015°24'0 0.0
2018-Apr-14 17:28N 28°10' W 015°24'0 0.0
2018-Apr-14 17:00N 28°10' W 015°24'0 0.0
2018-Apr-14 16:29N 28°10' W 015°24'0 0.0
2018-Apr-14 16:00N 28°10' W 015°24'1 1.1
2018-Apr-14 15:31N 28°09' W 015°24'1020.3
2018-Apr-14 15:00N 28°14' W 015°14'1020.8
2018-Apr-14 14:30N 28°18' W 015°03'1020.5
2018-Apr-14 14:00N 28°23' W 014°53'1020.5
2018-Apr-14 13:30N 28°28' W 014°42'1020.5
2018-Apr-14 13:00N 28°32' W 014°32'4020.4
2018-Apr-14 11:02N 28°49' W 013°50'221.3
2018-Apr-14 10:58N 28°49' W 013°48'1021.1
2018-Apr-14 10:30N 28°53' W 013°38'812.7
2018-Apr-14 09:53N 28°58' W 013°32'0 0.0
2018-Apr-14 09:24N 28°58' W 013°32'0 0.0
2018-Apr-14 08:53N 28°58' W 013°32'0 0.0
2018-Apr-14 08:22N 28°58' W 013°32'0 0.0
2018-Apr-14 07:55N 28°58' W 013°32'0 0.0
2018-Apr-14 07:30N 28°58' W 013°32'0 0.0
2018-Apr-14 06:57N 28°58' W 013°32'0 0.0
2018-Apr-14 06:26N 28°58' W 013°32'0 0.0
2018-Apr-14 06:00N 28°58' W 013°32'0 0.0
2018-Apr-14 05:25N 28°58' W 013°32'1 2.1
2018-Apr-14 05:00N 28°57' W 013°32'816.4
2018-Apr-14 04:30N 28°53' W 013°40'918.3
2018-Apr-14 04:00N 28°49' W 013°49'918.3
2018-Apr-14 03:30N 28°46' W 013°59'3619.2
2018-Apr-14 01:39N 28°31' W 014°36'319.7
2018-Apr-14 01:30N 28°29' W 014°39'1019.7
2018-Apr-14 01:01N 28°25' W 014°49'1019.3
2018-Apr-14 00:30N 28°20' W 014°58'1019.0
2018-Apr-14 00:00N 28°16' W 015°08'919.1
2018-Apr-13 23:31N 28°12' W 015°18'611.9
2018-Apr-13 23:00N 28°10' W 015°24'0 0.0
2018-Apr-13 22:29N 28°10' W 015°24'0 0.0
2018-Apr-13 21:59N 28°10' W 015°24'0 0.0
2018-Apr-13 21:25N 28°10' W 015°24'0 0.0
2018-Apr-13 20:57N 28°10' W 015°24'0 0.0
2018-Apr-13 20:29N 28°10' W 015°24'0 0.0
2018-Apr-13 20:00N 28°10' W 015°24'0 0.0
2018-Apr-13 19:30N 28°10' W 015°24'0 0.0
2018-Apr-13 19:00N 28°10' W 015°24'0 0.0
2018-Apr-13 18:30N 28°10' W 015°24'1 1.3
2018-Apr-13 18:00N 28°10' W 015°23'918.8
2018-Apr-13 17:30N 28°14' W 015°33'2020.3
2018-Apr-13 16:30N 28°22' W 015°54'1919.3
2018-Apr-13 15:30N 28°28' W 016°15'0 0.4
2018-Apr-13 15:00N 28°28' W 016°15'0 0.0
2018-Apr-13 14:30N 28°28' W 016°15'0 0.0
2018-Apr-13 14:00N 28°28' W 016°15'0 0.0
2018-Apr-13 13:30N 28°28' W 016°15'0 0.0
2018-Apr-13 13:00N 28°28' W 016°15'0 0.0
2018-Apr-13 12:30N 28°28' W 016°15'0 0.0
2018-Apr-13 12:00N 28°28' W 016°15'0 0.0
2018-Apr-13 11:30N 28°28' W 016°15'0 0.0
2018-Apr-13 11:00N 28°28' W 016°15'0 0.0
2018-Apr-13 10:30N 28°28' W 016°15'0 0.0
2018-Apr-13 10:00N 28°28' W 016°15'0 0.0
2018-Apr-13 09:30N 28°28' W 016°15'713.0
2018-Apr-13 09:00N 28°27' W 016°07'1020.9
2018-Apr-13 08:31N 28°23' W 015°56'1020.8
2018-Apr-13 08:00N 28°19' W 015°45'1020.5
2018-Apr-13 07:30N 28°15' W 015°34'1020.3
2018-Apr-13 07:00N 28°12' W 015°24'2 4.5
2018-Apr-13 06:30N 28°10' W 015°24'0 0.0
2018-Apr-13 05:58N 28°10' W 015°24'0 0.0
2018-Apr-13 05:30N 28°10' W 015°24'0 0.0
2018-Apr-13 05:00N 28°10' W 015°24'0 0.0
2018-Apr-13 04:30N 28°10' W 015°24'0 0.0
2018-Apr-13 04:00N 28°10' W 015°24'0 0.0
2018-Apr-13 03:30N 28°10' W 015°24'0 0.0
2018-Apr-13 03:00N 28°10' W 015°24'0 0.0
2018-Apr-13 02:30N 28°10' W 015°24'0 0.0
2018-Apr-13 02:00N 28°10' W 015°24'0 0.0
2018-Apr-13 01:30N 28°10' W 015°24'0 0.0
2018-Apr-13 01:00N 28°10' W 015°24'0 0.0
2018-Apr-13 00:30N 28°10' W 015°24'0 0.0
2018-Apr-13 00:00N 28°10' W 015°24'0 0.0
2018-Apr-12 23:30N 28°10' W 015°24'0 0.0
2018-Apr-12 23:00N 28°10' W 015°24'0 0.0
2018-Apr-12 22:30N 28°10' W 015°24'0 0.0
2018-Apr-12 22:00N 28°10' W 015°24'4 7.8
2018-Apr-12 21:30N 28°13' W 015°26'1121.9
2018-Apr-12 21:00N 28°17' W 015°38'1121.8
2018-Apr-12 20:30N 28°21' W 015°49'1121.7
2018-Apr-12 20:00N 28°25' W 016°01'1122.0
2018-Apr-12 19:30N 28°29' W 016°13'2 3.5
2018-Apr-12 19:00N 28°28' W 016°15'0 0.0
2018-Apr-12 18:30N 28°28' W 016°15'1 1.9
2018-Apr-12 18:00N 28°29' W 016°14'1021.0
2018-Apr-12 17:31N 28°25' W 016°03'1121.7
2018-Apr-12 17:00N 28°21' W 015°51'1020.9
2018-Apr-12 16:30N 28°18' W 015°40'1020.9
2018-Apr-12 16:00N 28°14' W 015°29'612.1
2018-Apr-12 15:30N 28°10' W 015°24'0 0.1
2018-Apr-12 15:00N 28°10' W 015°24'0 0.0
2018-Apr-12 14:30N 28°10' W 015°24'0 0.0
2018-Apr-12 13:59N 28°10' W 015°24'0 0.0
2018-Apr-12 13:30N 28°10' W 015°24'510.7
2018-Apr-12 13:00N 28°11' W 015°18'1121.7
2018-Apr-12 12:30N 28°16' W 015°07'1121.7
2018-Apr-12 12:00N 28°21' W 014°56'1121.5
2018-Apr-12 11:30N 28°26' W 014°45'1121.6
2018-Apr-12 11:00N 28°31' W 014°35'3321.3
2018-Apr-12 09:26N 28°46' W 014°01'921.6
2018-Apr-12 09:00N 28°48' W 013°50'919.2
2018-Apr-12 08:30N 28°52' W 013°40'10 7.9
2018-Apr-12 07:16N 28°58' W 013°32'0 0.0
2018-Apr-12 06:53N 28°58' W 013°32'0 0.0
2018-Apr-12 06:27N 28°58' W 013°32'0 0.0
2018-Apr-12 05:59N 28°58' W 013°32'0 0.0
2018-Apr-12 05:30N 28°58' W 013°32'4 7.7
2018-Apr-12 04:58N 28°55' W 013°35'818.1
2018-Apr-12 04:30N 28°51' W 013°43'917.9
2018-Apr-12 04:00N 28°48' W 013°53'1017.5
2018-Apr-12 03:27N 28°45' W 014°03'3217.8
2018-Apr-12 01:39N 28°31' W 014°36'318.0
2018-Apr-12 01:30N 28°29' W 014°38'918.1
2018-Apr-12 01:00N 28°25' W 014°48'918.1
2018-Apr-12 00:30N 28°21' W 014°57'918.1
2018-Apr-12 00:00N 28°17' W 015°06'918.4
2018-Apr-11 23:30N 28°13' W 015°15'917.1
2018-Apr-11 23:00N 28°09' W 015°24'0 0.7
2018-Apr-11 22:27N 28°10' W 015°24'0 0.0
2018-Apr-11 22:00N 28°10' W 015°24'0 0.0
2018-Apr-11 21:30N 28°10' W 015°24'0 0.0
2018-Apr-11 21:00N 28°10' W 015°24'0 0.0
2018-Apr-11 20:30N 28°10' W 015°24'0 0.0
2018-Apr-11 20:00N 28°10' W 015°24'0 0.0
2018-Apr-11 19:30N 28°10' W 015°24'0 0.0
2018-Apr-11 18:58N 28°10' W 015°24'0 0.0
2018-Apr-11 18:30N 28°10' W 015°24'0 0.0
2018-Apr-11 18:00N 28°10' W 015°24'1 1.2
2018-Apr-11 17:30N 28°09' W 015°24'917.2
2018-Apr-11 17:00N 28°14' W 015°31'1020.7
2018-Apr-11 16:30N 28°18' W 015°42'1020.6
2018-Apr-11 16:00N 28°22' W 015°53'1020.9
2018-Apr-11 15:31N 28°26' W 016°04'918.6
2018-Apr-11 15:00N 28°29' W 016°14'0 0.7
2018-Apr-11 14:30N 28°28' W 016°15'0 0.0
2018-Apr-11 14:00N 28°28' W 016°15'0 0.0
2018-Apr-11 13:30N 28°28' W 016°15'0 0.0
2018-Apr-11 13:00N 28°28' W 016°15'0 0.0
2018-Apr-11 12:30N 28°28' W 016°15'0 0.0
2018-Apr-11 12:00N 28°28' W 016°15'0 0.0
2018-Apr-11 11:30N 28°28' W 016°15'0 0.0
2018-Apr-11 11:00N 28°28' W 016°15'0 0.0
2018-Apr-11 10:30N 28°28' W 016°15'0 0.0
2018-Apr-11 10:00N 28°28' W 016°15'0 0.0
2018-Apr-11 09:30N 28°28' W 016°15'0 0.4
2018-Apr-11 09:01N 28°28' W 016°15'815.8
2018-Apr-11 08:30N 28°26' W 016°06'1020.5
2018-Apr-11 08:01N 28°23' W 015°55'1020.1
2018-Apr-11 07:30N 28°19' W 015°44'1020.1
2018-Apr-11 07:00N 28°15' W 015°34'1019.9
2018-Apr-11 06:31N 28°12' W 015°23'2 4.5
2018-Apr-11 06:00N 28°10' W 015°24'0 0.0
2018-Apr-11 05:30N 28°10' W 015°24'0 0.0
2018-Apr-11 05:00N 28°10' W 015°24'0 0.0
2018-Apr-11 04:30N 28°10' W 015°24'0 0.0
2018-Apr-11 04:00N 28°10' W 015°24'  

Dump ship's entire track history